Time;durP1;ratioP1;P1;durP2;ratioP2;P2;SDS_P1;SDS_P2;PMS_P1;PMS_P2;Temp;Humidity;BMP_temperature;BMP_pressure;BME280_temperature;BME280_humidity;BME280_pressure;Samples;Min_cycle;Max_cycle;Signal;HPM_P1;HPM_P2
2022/03/02 00:01:24;;;;;;;17.90;7.15;;;;;;;;;;5089376;28;20032;-48
2022/03/02 00:03:50;;;;;;;15.65;7.80;;;;;;;;;;5079620;28;20036;-48
2022/03/02 00:06:16;;;;;;;13.75;7.55;;;;;;;;;;5076743;28;20047;-48
2022/03/02 00:08:42;;;;;;;15.20;7.78;;;;;;;;;;5092674;28;20411;-47
2022/03/02 00:11:09;;;;;;;16.67;8.15;;;;;;;;;;5092055;28;20065;-49
2022/03/02 00:13:35;;;;;;;16.75;7.95;;;;;;;;;;5090392;28;20046;-47
2022/03/02 00:16:01;;;;;;;17.88;8.38;;;;;;;;;;5083560;28;20032;-47
2022/03/02 00:18:27;;;;;;;14.30;7.50;;;;;;;;;;5092433;28;20024;-47
2022/03/02 00:20:53;;;;;;;18.65;8.27;;;;;;;;;;5081373;28;20066;-47
2022/03/02 00:23:19;;;;;;;18.67;8.32;;;;;;;;;;5089966;28;20032;-50
2022/03/02 00:25:45;;;;;;;14.43;8.10;;;;;;;;;;5084464;28;20039;-50
2022/03/02 00:28:11;;;;;;;17.42;7.78;;;;;;;;;;5090012;28;20069;-52
2022/03/02 00:30:37;;;;;;;16.33;8.55;;;;;;;;;;5092126;28;20028;-48
2022/03/02 00:33:03;;;;;;;14.57;7.75;;;;;;;;;;5091826;28;20048;-49
2022/03/02 00:35:29;;;;;;;17.33;8.00;;;;;;;;;;5087872;28;20381;-47
2022/03/02 00:37:55;;;;;;;20.23;8.73;;;;;;;;;;5086481;28;20031;-48
2022/03/02 00:40:21;;;;;;;16.65;7.45;;;;;;;;;;5092166;28;20449;-49
2022/03/02 00:42:47;;;;;;;18.38;7.70;;;;;;;;;;5092455;28;20104;-48
2022/03/02 00:45:13;;;;;;;14.85;7.60;;;;;;;;;;5090899;28;20021;-49
2022/03/02 00:47:39;;;;;;;17.15;7.63;;;;;;;;;;5089488;28;20059;-47
2022/03/02 00:50:05;;;;;;;14.95;7.70;;;;;;;;;;5091359;28;20118;-50
2022/03/02 00:52:31;;;;;;;16.77;7.70;;;;;;;;;;5088182;28;20659;-51
2022/03/02 00:54:58;;;;;;;12.15;6.68;;;;;;;;;;5081030;28;20032;-48
2022/03/02 00:57:24;;;;;;;11.88;7.07;;;;;;;;;;5077844;28;20025;-48
2022/03/02 00:59:50;;;;;;;12.90;6.72;;;;;;;;;;5091889;28;20066;-47
2022/03/02 01:02:16;;;;;;;15.43;6.93;;;;;;;;;;5091599;28;20024;-49
2022/03/02 01:04:41;;;;;;;15.88;6.82;;;;;;;;;;5083218;28;20036;-48
2022/03/02 01:07:08;;;;;;;13.27;6.68;;;;;;;;;;5083311;28;20035;-47
2022/03/02 01:09:34;;;;;;;13.80;7.28;;;;;;;;;;5092149;28;20020;-50
2022/03/02 01:12:00;;;;;;;12.35;6.45;;;;;;;;;;5079614;28;20381;-47
2022/03/02 01:14:26;;;;;;;16.08;7.55;;;;;;;;;;5086627;28;20103;-51
2022/03/02 01:16:52;;;;;;;13.25;7.18;;;;;;;;;;5082457;28;20068;-50
2022/03/02 01:19:18;;;;;;;16.58;8.02;;;;;;;;;;5091717;28;20048;-49
2022/03/02 01:21:44;;;;;;;14.68;7.30;;;;;;;;;;5091614;28;20038;-48
2022/03/02 01:24:10;;;;;;;14.52;7.70;;;;;;;;;;5083804;28;20035;-49
2022/03/02 01:26:36;;;;;;;12.90;7.40;;;;;;;;;;5079511;28;20140;-47
2022/03/02 01:29:03;;;;;;;12.73;6.60;;;;;;;;;;5081453;28;20044;-49
2022/03/02 01:31:29;;;;;;;17.60;6.90;;;;;;;;;;5076980;28;20387;-47
2022/03/02 01:33:56;;;;;;;14.63;7.13;;;;;;;;;;5087058;28;20052;-47
2022/03/02 01:36:22;;;;;;;14.63;7.57;;;;;;;;;;5084190;28;20042;-48
2022/03/02 01:38:48;;;;;;;12.75;6.70;;;;;;;;;;5095021;28;20503;-47
2022/03/02 01:41:18;;;;;;;16.48;7.75;;;;;;;;;;5087945;28;20031;-48
2022/03/02 01:43:44;;;;;;;18.73;7.05;;;;;;;;;;5087530;28;20476;-47
2022/03/02 01:46:11;;;;;;;17.20;8.10;;;;;;;;;;5084718;28;20081;-48
2022/03/02 01:48:37;;;;;;;13.68;7.50;;;;;;;;;;5086166;28;20020;-48
2022/03/02 01:51:03;;;;;;;14.30;7.15;;;;;;;;;;5093495;28;20135;-48
2022/03/02 01:53:29;;;;;;;12.73;6.68;;;;;;;;;;5095362;28;20023;-47
2022/03/02 01:55:58;;;;;;;14.07;7.07;;;;;;;;;;5089691;28;20025;-50
2022/03/02 01:58:25;;;;;;;15.27;7.00;;;;;;;;;;5087072;28;20020;-52
2022/03/02 02:00:51;;;;;;;15.23;6.13;;;;;;;;;;5087445;28;20526;-47
2022/03/02 02:03:17;;;;;;;13.48;7.28;;;;;;;;;;5081693;28;20364;-47
2022/03/02 02:05:43;;;;;;;17.48;7.32;;;;;;;;;;5093310;28;20089;-49
2022/03/02 02:08:09;;;;;;;18.00;7.53;;;;;;;;;;5082535;28;20032;-50
2022/03/02 02:10:35;;;;;;;17.30;7.63;;;;;;;;;;5091904;28;20043;-50
2022/03/02 02:13:02;;;;;;;16.25;7.35;;;;;;;;;;5091016;28;20375;-47
2022/03/02 02:15:28;;;;;;;13.40;7.25;;;;;;;;;;5091794;28;20030;-48
2022/03/02 02:17:54;;;;;;;16.70;7.55;;;;;;;;;;5083890;28;20123;-48
2022/03/02 02:20:20;;;;;;;15.52;7.45;;;;;;;;;;5086906;28;20095;-48
2022/03/02 02:22:47;;;;;;;13.57;6.53;;;;;;;;;;5086854;28;20024;-47
2022/03/02 02:25:14;;;;;;;14.32;7.13;;;;;;;;;;5094343;28;20356;-47
2022/03/02 02:27:41;;;;;;;14.32;7.05;;;;;;;;;;5094340;28;20024;-47
2022/03/02 02:30:07;;;;;;;16.23;7.55;;;;;;;;;;5093304;28;20081;-48
2022/03/02 02:32:36;;;;;;;16.15;6.32;;;;;;;;;;5093653;28;20028;-48
2022/03/02 02:35:02;;;;;;;15.95;6.18;;;;;;;;;;5089767;28;20099;-47
2022/03/02 02:37:29;;;;;;;13.50;6.97;;;;;;;;;;5085482;28;20030;-48
2022/03/02 02:39:59;;;;;;;12.18;6.65;;;;;;;;;;5089629;28;20083;-49
2022/03/02 02:42:24;;;;;;;13.95;6.38;;;;;;;;;;5086662;28;20032;-48
2022/03/02 02:44:51;;;;;;;13.90;6.43;;;;;;;;;;5094091;28;20036;-50
2022/03/02 02:47:16;;;;;;;15.55;6.25;;;;;;;;;;5090215;28;20513;-50
2022/03/02 02:49:42;;;;;;;12.88;6.55;;;;;;;;;;5079868;28;20044;-51
2022/03/02 02:52:08;;;;;;;15.40;7.10;;;;;;;;;;5074402;28;20053;-47
2022/03/02 02:54:34;;;;;;;11.98;6.88;;;;;;;;;;5093641;28;20032;-47
2022/03/02 02:57:00;;;;;;;15.02;7.68;;;;;;;;;;5080065;28;20032;-50
2022/03/02 02:59:26;;;;;;;17.27;7.88;;;;;;;;;;5085018;28;20028;-48
2022/03/02 03:01:52;;;;;;;15.57;7.60;;;;;;;;;;5084467;28;20093;-48
2022/03/02 03:04:18;;;;;;;18.77;8.25;;;;;;;;;;5080274;28;20357;-47
2022/03/02 03:06:44;;;;;;;18.98;8.38;;;;;;;;;;5082538;28;20090;-48
2022/03/02 03:09:10;;;;;;;17.23;8.13;;;;;;;;;;5079259;28;20032;-47
2022/03/02 03:11:40;;;;;;;14.20;8.15;;;;;;;;;;5090535;28;20103;-52
2022/03/02 03:14:13;;;;;;;16.08;8.55;;;;;;;;;;5093462;28;20032;-47
2022/03/02 03:16:39;;;;;;;;;;;;;;;;;;5084768;28;20036;-47
2022/03/02 03:19:05;;;;;;;13.18;7.80;;;;;;;;;;5087764;28;20307;-49
2022/03/02 03:21:31;;;;;;;17.50;8.68;;;;;;;;;;5093153;28;20024;-48
2022/03/02 03:23:57;;;;;;;14.75;7.63;;;;;;;;;;5081964;28;20455;-47
2022/03/02 03:26:23;;;;;;;17.85;8.25;;;;;;;;;;5082890;28;20037;-48
2022/03/02 03:28:49;;;;;;;15.23;8.20;;;;;;;;;;5089304;28;20116;-49
2022/03/02 03:31:15;;;;;;;18.63;8.55;;;;;;;;;;5091231;28;20390;-52
2022/03/02 03:33:41;;;;;;;15.40;7.35;;;;;;;;;;5093462;28;20024;-50
2022/03/02 03:36:07;;;;;;;20.40;8.02;;;;;;;;;;5085154;28;20362;-51
2022/03/02 03:38:33;;;;;;;16.67;7.90;;;;;;;;;;5091396;28;20024;-50
2022/03/02 03:40:59;;;;;;;12.20;6.88;;;;;;;;;;5085911;28;20025;-49
2022/03/02 03:43:25;;;;;;;14.93;6.75;;;;;;;;;;5093243;28;20024;-48
2022/03/02 03:45:51;;;;;;;12.55;6.57;;;;;;;;;;5087323;28;20412;-48
2022/03/02 03:48:18;;;;;;;18.80;8.02;;;;;;;;;;5092993;28;20016;-47
2022/03/02 03:50:44;;;;;;;18.75;7.95;;;;;;;;;;5092692;28;20042;-48
2022/03/02 03:53:10;;;;;;;20.02;7.90;;;;;;;;;;5092366;28;20071;-47
2022/03/02 03:55:38;;;;;;;18.90;8.63;;;;;;;;;;5087845;28;20460;-48
2022/03/02 03:58:04;;;;;;;16.98;8.30;;;;;;;;;;5081702;28;20094;-49
2022/03/02 04:00:30;;;;;;;18.58;9.32;;;;;;;;;;5091463;28;20042;-51
2022/03/02 04:02:56;;;;;;;17.33;9.05;;;;;;;;;;5083804;28;20027;-48
2022/03/02 04:05:22;;;;;;;21.50;8.40;;;;;;;;;;5090412;28;20028;-48
2022/03/02 04:07:48;;;;;;;17.25;8.45;;;;;;;;;;5089369;28;20036;-48
2022/03/02 04:10:14;;;;;;;20.58;9.50;;;;;;;;;;5091619;28;20028;-47
2022/03/02 04:12:41;;;;;;;24.05;9.98;;;;;;;;;;5083915;28;20051;-52
2022/03/02 04:15:07;;;;;;;20.40;9.43;;;;;;;;;;5090481;28;20090;-48
2022/03/02 04:17:33;;;;;;;22.70;10.40;;;;;;;;;;5081941;28;20032;-50
2022/03/02 04:19:59;;;;;;;19.65;9.63;;;;;;;;;;5092410;28;20365;-48
2022/03/02 04:22:26;;;;;;;21.80;9.80;;;;;;;;;;5092127;28;20031;-48
2022/03/02 04:24:52;;;;;;;17.02;9.88;;;;;;;;;;5092055;28;20454;-47
2022/03/02 04:27:18;;;;;;;19.95;9.07;;;;;;;;;;5084559;28;20124;-48
2022/03/02 04:29:45;;;;;;;20.02;9.98;;;;;;;;;;5092277;28;20032;-47
2022/03/02 04:32:10;;;;;;;21.65;10.65;;;;;;;;;;5087848;28;20032;-49
2022/03/02 04:34:36;;;;;;;27.33;11.30;;;;;;;;;;5092180;28;20020;-48
2022/03/02 04:37:03;;;;;;;24.63;10.77;;;;;;;;;;5085707;28;20062;-49
2022/03/02 04:39:29;;;;;;;22.08;10.48;;;;;;;;;;5081687;28;20068;-48
2022/03/02 04:41:55;;;;;;;23.75;10.27;;;;;;;;;;5083340;28;20357;-47
2022/03/02 04:44:21;;;;;;;24.08;10.70;;;;;;;;;;5087560;28;20024;-48
2022/03/02 04:46:50;;;;;;;25.90;10.65;;;;;;;;;;5083136;28;20044;-50
2022/03/02 04:49:18;;;;;;;25.55;10.52;;;;;;;;;;5088323;28;20077;-48
2022/03/02 04:51:45;;;;;;;24.08;10.68;;;;;;;;;;5091164;28;20045;-50
2022/03/02 04:55:05;;;;;;;22.17;10.60;;;;;;;;;;5092316;28;20560;-48
2022/03/02 04:56:57;;;;;;;23.38;10.60;;;;;;;;;;5078599;28;20056;-49
2022/03/02 04:59:23;;;;;;;22.42;10.68;;;;;;;;;;5087824;28;20341;-50
2022/03/02 05:01:49;;;;;;;23.95;10.45;;;;;;;;;;5079345;28;20077;-49
2022/03/02 05:04:15;;;;;;;26.83;11.05;;;;;;;;;;5083120;28;20388;-48
2022/03/02 05:06:41;;;;;;;21.08;9.85;;;;;;;;;;5083810;28;20032;-48
2022/03/02 05:09:06;;;;;;;21.83;10.38;;;;;;;;;;5090306;28;20476;-49
2022/03/02 05:11:32;;;;;;;20.80;9.50;;;;;;;;;;5085861;28;20039;-50
2022/03/02 05:13:58;;;;;;;20.30;10.02;;;;;;;;;;5087673;28;20127;-48
2022/03/02 05:16:24;;;;;;;23.98;10.23;;;;;;;;;;5075626;28;20033;-47
2022/03/02 05:18:50;;;;;;;21.38;10.00;;;;;;;;;;5092301;28;20024;-47
2022/03/02 05:21:16;;;;;;;21.20;9.23;;;;;;;;;;5092007;28;20028;-47
2022/03/02 05:23:42;;;;;;;21.60;9.82;;;;;;;;;;5092397;28;20477;-47
2022/03/02 05:26:09;;;;;;;20.10;9.80;;;;;;;;;;5080809;28;20365;-47
2022/03/02 05:28:36;;;;;;;22.98;9.70;;;;;;;;;;5090233;28;20036;-48
2022/03/02 05:31:02;;;;;;;25.67;9.73;;;;;;;;;;5090323;28;20012;-51
2022/03/02 05:33:28;;;;;;;23.77;10.35;;;;;;;;;;5082203;28;20129;-48
2022/03/02 05:35:54;;;;;;;21.95;10.10;;;;;;;;;;5089677;28;20028;-47
2022/03/02 05:38:20;;;;;;;27.45;10.57;;;;;;;;;;5084279;28;20035;-50
2022/03/02 05:40:46;;;;;;;30.33;11.32;;;;;;;;;;5075772;28;20408;-48
2022/03/02 05:43:12;;;;;;;24.48;11.57;;;;;;;;;;5081291;28;20025;-48
2022/03/02 05:45:38;;;;;;;23.58;11.30;;;;;;;;;;5094147;28;20031;-50
2022/03/02 05:48:04;;;;;;;21.15;9.93;;;;;;;;;;5082015;28;20176;-49
2022/03/02 05:50:30;;;;;;;22.40;9.90;;;;;;;;;;5074625;28;20043;-48
2022/03/02 05:52:56;;;;;;;23.60;9.45;;;;;;;;;;5080138;28;20036;-47
2022/03/02 05:55:22;;;;;;;23.65;10.55;;;;;;;;;;5078802;28;20120;-47
2022/03/02 05:57:48;;;;;;;23.30;10.45;;;;;;;;;;5080336;28;20498;-50
2022/03/02 06:00:14;;;;;;;19.95;10.13;;;;;;;;;;5088086;28;20029;-48
2022/03/02 06:02:41;;;;;;;21.15;10.65;;;;;;;;;;5080659;28;20032;-48
2022/03/02 06:05:09;;;;;;;22.38;10.45;;;;;;;;;;5080945;28;20610;-50
2022/03/02 06:07:35;;;;;;;29.08;11.95;;;;;;;;;;5086278;28;20023;-50
2022/03/02 06:10:01;;;;;;;25.73;12.50;;;;;;;;;;5092644;28;20372;-50
2022/03/02 06:12:27;;;;;;;26.67;12.68;;;;;;;;;;5091290;28;20032;-48
2022/03/02 06:14:54;;;;;;;24.77;12.00;;;;;;;;;;5087952;28;20028;-48
2022/03/02 06:17:21;;;;;;;28.67;12.80;;;;;;;;;;5082035;28;20496;-49
2022/03/02 06:19:47;;;;;;;25.77;11.90;;;;;;;;;;5084479;28;20020;-47
2022/03/02 06:22:16;;;;;;;29.35;11.57;;;;;;;;;;5085863;28;20024;-49
2022/03/02 06:24:42;;;;;;;28.00;12.20;;;;;;;;;;5092099;28;20057;-49
2022/03/02 06:27:08;;;;;;;32.22;13.30;;;;;;;;;;5079872;28;20375;-48
2022/03/02 06:29:34;;;;;;;31.83;13.68;;;;;;;;;;5087153;28;20024;-48
2022/03/02 06:32:00;;;;;;;29.80;13.32;;;;;;;;;;5091253;28;20465;-51
2022/03/02 06:34:26;;;;;;;32.03;13.05;;;;;;;;;;5090922;28;20025;-50
2022/03/02 06:36:52;;;;;;;29.45;13.27;;;;;;;;;;5085235;28;20038;-47
2022/03/02 06:39:19;;;;;;;32.55;13.60;;;;;;;;;;5080194;28;20562;-47
2022/03/02 06:41:59;;;;;;;27.40;12.88;;;;;;;;;;5081948;28;20086;-49
2022/03/02 06:44:42;;;;;;;36.67;18.77;;;;;;;;;;5092646;28;20062;-50
2022/03/02 06:47:11;;;;;;;36.53;14.90;;;;;;;;;;5079609;28;20036;-47
2022/03/02 06:49:55;;;;;;;37.85;19.98;;;;;;;;;;5084545;28;20032;-47
2022/03/02 06:52:21;;;;;;;34.22;14.65;;;;;;;;;;5084520;28;20052;-48
2022/03/02 06:54:48;;;;;;;31.15;14.30;;;;;;;;;;5088666;28;20073;-47
2022/03/02 06:57:16;;;;;;;31.42;13.88;;;;;;;;;;5085508;28;20056;-49
2022/03/02 06:59:44;;;;;;;31.13;12.70;;;;;;;;;;5080596;28;20031;-47
2022/03/02 07:02:15;;;;;;;32.38;13.10;;;;;;;;;;5076626;28;20036;-48
2022/03/02 07:04:42;;;;;;;26.90;12.40;;;;;;;;;;5089335;28;20039;-50
2022/03/02 07:07:08;;;;;;;34.28;14.93;;;;;;;;;;5085769;28;20032;-49
2022/03/02 07:09:34;;;;;;;30.00;13.05;;;;;;;;;;5081112;28;20035;-48
2022/03/02 07:12:01;;;;;;;27.02;11.70;;;;;;;;;;5084566;28;20072;-48
2022/03/02 07:14:31;;;;;;;38.97;20.58;;;;;;;;;;5073602;28;20380;-47
2022/03/02 07:17:01;;;;;;;34.00;13.65;;;;;;;;;;5081061;28;20111;-48
2022/03/02 07:19:27;;;;;;;31.50;14.07;;;;;;;;;;5080774;28;20021;-48
2022/03/02 07:21:54;;;;;;;31.13;13.40;;;;;;;;;;5076882;28;20020;-49
2022/03/02 07:24:22;;;;;;;30.98;13.52;;;;;;;;;;5087927;28;20403;-48
2022/03/02 07:26:58;;;;;;;31.83;13.88;;;;;;;;;;5083176;28;20020;-47
2022/03/02 07:29:26;;;;;;;31.02;14.27;;;;;;;;;;5086996;28;20111;-48
2022/03/02 07:31:53;;;;;;;33.53;14.07;;;;;;;;;;5078084;28;20108;-47
2022/03/02 07:34:20;;;;;;;28.02;13.18;;;;;;;;;;5084378;28;20088;-48
2022/03/02 07:36:46;;;;;;;31.67;13.73;;;;;;;;;;5084799;28;20047;-48
2022/03/02 07:39:13;;;;;;;31.02;13.73;;;;;;;;;;5076496;28;20031;-49
2022/03/02 07:41:39;;;;;;;31.95;14.00;;;;;;;;;;5079193;28;20464;-48
2022/03/02 07:44:05;;;;;;;31.58;13.70;;;;;;;;;;5082981;28;20043;-47
2022/03/02 07:46:32;;;;;;;32.63;14.25;;;;;;;;;;5079848;28;20375;-47
2022/03/02 07:48:58;;;;;;;31.15;14.90;;;;;;;;;;5081751;28;20032;-48
2022/03/02 07:51:25;;;;;;;31.77;15.30;;;;;;;;;;5076444;28;20123;-51
2022/03/02 07:53:52;;;;;;;32.10;14.15;;;;;;;;;;5077453;28;20032;-51
2022/03/02 07:56:18;;;;;;;36.10;15.25;;;;;;;;;;5090047;28;20475;-49
2022/03/02 07:58:44;;;;;;;32.15;14.20;;;;;;;;;;5080890;28;20031;-49
2022/03/02 08:01:14;;;;;;;28.88;13.25;;;;;;;;;;5077320;28;20033;-48
2022/03/02 08:03:42;;;;;;;30.92;14.00;;;;;;;;;;5081829;28;20472;-48
2022/03/02 08:06:09;;;;;;;26.00;13.60;;;;;;;;;;5077038;28;20039;-50
2022/03/02 08:08:35;;;;;;;38.80;14.98;;;;;;;;;;5086063;28;20032;-50
2022/03/02 08:11:02;;;;;;;32.92;15.18;;;;;;;;;;5073143;28;20130;-47
2022/03/02 08:13:30;;;;;;;32.80;14.95;;;;;;;;;;5084702;28;20028;-47
2022/03/02 08:15:56;;;;;;;30.55;13.18;;;;;;;;;;5082986;28;20098;-51
2022/03/02 08:18:22;;;;;;;31.73;13.07;;;;;;;;;;5079336;28;20020;-47
2022/03/02 08:20:50;;;;;;;27.25;13.68;;;;;;;;;;5087038;28;20031;-47
2022/03/02 08:23:16;;;;;;;27.98;12.98;;;;;;;;;;5081669;28;20111;-48
2022/03/02 08:25:42;;;;;;;33.67;13.98;;;;;;;;;;5080283;28;20031;-47
2022/03/02 08:28:12;;;;;;;33.65;13.27;;;;;;;;;;5079569;28;20515;-49
2022/03/02 08:30:38;;;;;;;32.50;13.48;;;;;;;;;;5074258;28;20036;-51
2022/03/02 08:33:05;;;;;;;31.10;12.82;;;;;;;;;;5080259;28;20050;-51
2022/03/02 08:35:35;;;;;;;34.65;13.88;;;;;;;;;;5077427;28;20085;-49
2022/03/02 08:38:01;;;;;;;29.48;12.95;;;;;;;;;;5088379;28;20373;-48
2022/03/02 08:40:26;;;;;;;25.80;12.73;;;;;;;;;;5076945;28;20016;-47
2022/03/02 08:42:52;;;;;;;27.63;12.57;;;;;;;;;;5076796;28;20476;-48
2022/03/02 08:45:20;;;;;;;26.20;12.10;;;;;;;;;;5073284;28;20028;-49
2022/03/02 08:47:46;;;;;;;31.02;12.65;;;;;;;;;;5088070;28;20032;-51
2022/03/02 08:50:12;;;;;;;28.95;13.38;;;;;;;;;;5081214;28;20569;-47
2022/03/02 08:52:38;;;;;;;32.20;14.18;;;;;;;;;;5078567;28;20045;-47
2022/03/02 08:55:06;;;;;;;33.88;14.35;;;;;;;;;;5083251;28;20034;-53
2022/03/02 08:57:34;;;;;;;31.80;13.52;;;;;;;;;;5092606;28;20036;-47
2022/03/02 09:00:00;;;;;;;32.78;13.10;;;;;;;;;;5088759;28;20146;-47
2022/03/02 09:02:29;;;;;;;30.65;13.15;;;;;;;;;;5078344;28;20103;-52
2022/03/02 09:04:59;;;;;;;36.47;14.30;;;;;;;;;;5094170;28;20060;-48
2022/03/02 09:07:25;;;;;;;27.45;13.48;;;;;;;;;;5092184;28;20657;-47
2022/03/02 09:09:51;;;;;;;26.20;12.82;;;;;;;;;;5088926;28;20537;-47
2022/03/02 09:12:17;;;;;;;29.52;12.93;;;;;;;;;;5083977;28;20032;-49
2022/03/02 09:14:44;;;;;;;28.25;12.93;;;;;;;;;;5078955;28;20101;-47
2022/03/02 09:17:10;;;;;;;26.58;12.77;;;;;;;;;;5087633;28;20135;-50
2022/03/02 09:19:35;;;;;;;29.63;12.88;;;;;;;;;;5084774;28;20016;-51
2022/03/02 09:22:03;;;;;;;29.45;13.07;;;;;;;;;;5083075;28;20027;-50
2022/03/02 09:24:30;;;;;;;28.55;13.50;;;;;;;;;;5076103;28;20020;-49
2022/03/02 09:26:57;;;;;;;32.72;15.43;;;;;;;;;;5082174;28;20740;-47
2022/03/02 09:29:28;;;;;;;29.52;13.15;;;;;;;;;;5085350;28;20360;-49
2022/03/02 09:31:56;;;;;;;27.83;13.60;;;;;;;;;;5087532;28;20471;-49
2022/03/02 09:34:25;;;;;;;31.90;13.85;;;;;;;;;;5083552;28;20675;-47
2022/03/02 09:36:52;;;;;;;27.27;13.18;;;;;;;;;;5086221;28;20024;-48
2022/03/02 09:39:18;;;;;;;31.60;13.48;;;;;;;;;;5089987;28;20479;-47
2022/03/02 09:41:58;;;;;;;26.38;12.07;;;;;;;;;;5091324;28;20077;-47
2022/03/02 09:44:28;;;;;;;31.20;12.65;;;;;;;;;;5091048;28;20028;-47
2022/03/02 09:46:58;;;;;;;28.80;12.60;;;;;;;;;;5090593;28;20030;-49
2022/03/02 09:49:25;;;;;;;28.85;13.52;;;;;;;;;;5089623;28;20032;-48
2022/03/02 09:51:52;;;;;;;31.35;13.60;;;;;;;;;;5077245;28;20040;-48
2022/03/02 09:54:21;;;;;;;32.25;14.77;;;;;;;;;;5081226;28;20036;-47
2022/03/02 09:56:49;;;;;;;30.90;12.95;;;;;;;;;;5090661;28;20065;-48
2022/03/02 09:59:17;;;;;;;27.40;12.32;;;;;;;;;;5079345;28;20020;-48
2022/03/02 10:01:44;;;;;;;25.67;12.45;;;;;;;;;;5089746;28;20028;-49
2022/03/02 10:04:23;;;;;;;29.23;12.00;;;;;;;;;;5094372;28;20067;-48
2022/03/02 10:06:51;;;;;;;27.80;11.65;;;;;;;;;;5085911;28;20111;-47
2022/03/02 10:09:20;;;;;;;29.05;12.98;;;;;;;;;;5080264;28;20095;-48
2022/03/02 10:11:46;;;;;;;26.55;12.63;;;;;;;;;;5082265;28;20498;-47
2022/03/02 10:14:12;;;;;;;27.13;12.55;;;;;;;;;;5077866;28;20032;-49
2022/03/02 10:16:42;;;;;;;30.35;13.27;;;;;;;;;;5083330;28;20119;-51
2022/03/02 10:19:09;;;;;;;27.27;12.43;;;;;;;;;;5089139;28;20074;-47
2022/03/02 10:21:41;;;;;;;32.88;12.23;;;;;;;;;;5081233;28;20126;-48
2022/03/02 10:24:13;;;;;;;25.35;12.52;;;;;;;;;;5084418;28;20031;-47
2022/03/02 10:26:50;;;;;;;26.03;12.93;;;;;;;;;;5077521;28;20036;-47
2022/03/02 10:29:33;;;;;;;25.10;11.80;;;;;;;;;;5083441;28;20503;-47
2022/03/02 10:31:59;;;;;;;;;;;;;;;;;;5081298;28;20032;-46
2022/03/02 10:34:25;;;;;;;26.80;12.73;;;;;;;;;;5081239;28;20429;-47
2022/03/02 10:37:06;;;;;;;25.05;11.70;;;;;;;;;;5085584;28;20028;-48
2022/03/02 10:39:47;;;;;;;27.60;11.80;;;;;;;;;;5081515;28;20146;-49
2022/03/02 10:42:17;;;;;;;27.60;13.15;;;;;;;;;;5074951;28;20074;-47
2022/03/02 10:44:54;;;;;;;25.50;12.75;;;;;;;;;;5079074;28;20020;-47
2022/03/02 10:47:22;;;;;;;25.98;11.65;;;;;;;;;;5090196;28;20089;-48
2022/03/02 10:49:50;;;;;;;25.30;12.00;;;;;;;;;;5084557;28;20387;-51
2022/03/02 10:52:20;;;;;;;28.65;13.13;;;;;;;;;;5079708;28;20045;-48
2022/03/02 10:54:48;;;;;;;25.15;11.77;;;;;;;;;;5079601;28;20065;-47
2022/03/02 10:57:15;;;;;;;27.60;10.70;;;;;;;;;;5082397;28;20038;-48
2022/03/02 10:59:44;;;;;;;22.48;11.35;;;;;;;;;;5077250;28;20099;-48
2022/03/02 11:02:10;;;;;;;27.83;12.02;;;;;;;;;;5077603;28;20111;-47
2022/03/02 11:04:38;;;;;;;21.80;9.82;;;;;;;;;;5092758;28;20028;-48
2022/03/02 11:07:04;;;;;;;22.95;10.77;;;;;;;;;;5090172;28;20107;-47
2022/03/02 11:09:33;;;;;;;23.42;10.50;;;;;;;;;;5079602;28;20140;-47
2022/03/02 11:12:01;;;;;;;27.27;11.73;;;;;;;;;;5079404;28;20028;-48
2022/03/02 11:14:27;;;;;;;20.08;9.90;;;;;;;;;;5092363;28;20081;-50
2022/03/02 11:17:11;;;;;;;19.60;10.20;;;;;;;;;;5082437;28;20484;-48
2022/03/02 11:19:44;;;;;;;19.05;9.65;;;;;;;;;;5078220;28;20044;-47
2022/03/02 11:22:11;;;;;;;19.88;9.45;;;;;;;;;;5080519;28;20034;-51
2022/03/02 11:24:38;;;;;;;16.75;9.10;;;;;;;;;;5083387;28;20032;-48
2022/03/02 11:27:04;;;;;;;17.88;8.77;;;;;;;;;;5075974;28;20029;-49
2022/03/02 11:29:31;;;;;;;21.48;10.27;;;;;;;;;;5079254;28;20452;-51
2022/03/02 11:31:57;;;;;;;21.30;9.05;;;;;;;;;;5073102;28;20048;-49
2022/03/02 11:34:30;;;;;;;16.67;8.85;;;;;;;;;;5089110;28;20117;-47
2022/03/02 11:36:58;;;;;;;19.83;8.90;;;;;;;;;;5080632;28;20055;-47
2022/03/02 11:39:25;;;;;;;19.15;9.52;;;;;;;;;;5093158;28;20036;-47
2022/03/02 11:41:53;;;;;;;20.98;9.25;;;;;;;;;;5083141;28;20031;-48
2022/03/02 11:44:30;;;;;;;20.75;9.48;;;;;;;;;;5092187;28;20488;-47
2022/03/02 11:46:56;;;;;;;21.98;10.10;;;;;;;;;;5084555;28;20111;-47
2022/03/02 11:49:36;;;;;;;18.35;10.27;;;;;;;;;;5086421;28;20071;-48
2022/03/02 11:52:04;;;;;;;18.55;9.45;;;;;;;;;;5078019;28;20047;-47
2022/03/02 11:54:42;;;;;;;20.05;10.35;;;;;;;;;;5091297;28;20051;-48
2022/03/02 11:57:08;;;;;;;21.63;10.23;;;;;;;;;;5090314;28;20036;-48
2022/03/02 11:59:38;;;;;;;18.50;9.48;;;;;;;;;;5090430;28;20040;-48
2022/03/02 12:02:12;;;;;;;20.65;9.70;;;;;;;;;;5092136;28;20027;-52
2022/03/02 12:04:38;;;;;;;19.00;9.10;;;;;;;;;;5086415;28;20111;-47
2022/03/02 12:07:05;;;;;;;18.20;9.80;;;;;;;;;;5077924;28;20423;-49
2022/03/02 12:09:35;;;;;;;20.13;9.13;;;;;;;;;;5083538;28;20063;-52
2022/03/02 12:12:07;;;;;;;18.60;9.23;;;;;;;;;;5086064;28;20024;-48
2022/03/02 12:14:48;;;;;;;16.88;9.02;;;;;;;;;;5089439;28;20954;-48
2022/03/02 12:17:15;;;;;;;15.25;8.55;;;;;;;;;;5074843;28;20086;-49
2022/03/02 12:19:41;;;;;;;15.07;8.45;;;;;;;;;;5083656;28;20040;-48
2022/03/02 12:22:10;;;;;;;15.40;7.55;;;;;;;;;;5084002;28;20059;-48
2022/03/02 12:24:37;;;;;;;14.00;7.45;;;;;;;;;;5083618;28;20145;-48
2022/03/02 12:27:13;;;;;;;14.32;7.28;;;;;;;;;;5084984;28;20039;-47
2022/03/02 12:29:40;;;;;;;16.67;8.00;;;;;;;;;;5086371;28;20028;-47
2022/03/02 12:32:07;;;;;;;15.30;7.25;;;;;;;;;;5091087;28;20032;-49
2022/03/02 12:34:38;;;;;;;14.77;7.72;;;;;;;;;;5086977;28;20085;-50
2022/03/02 12:37:04;;;;;;;14.63;7.80;;;;;;;;;;5077446;28;20028;-48
2022/03/02 12:39:31;;;;;;;11.40;6.03;;;;;;;;;;5080563;28;20028;-48
2022/03/02 12:41:57;;;;;;;10.77;6.20;;;;;;;;;;5078489;28;20035;-49
2022/03/02 12:44:24;;;;;;;12.15;6.28;;;;;;;;;;5078848;28;20065;-48
2022/03/02 12:46:51;;;;;;;12.52;5.97;;;;;;;;;;5083516;28;20024;-48
2022/03/02 12:49:17;;;;;;;13.50;6.25;;;;;;;;;;5090254;28;20034;-48
2022/03/02 12:51:46;;;;;;;10.00;5.65;;;;;;;;;;5089507;28;20051;-51
2022/03/02 12:54:12;;;;;;;13.68;5.80;;;;;;;;;;5082298;28;20488;-48
2022/03/02 12:56:39;;;;;;;9.95;5.90;;;;;;;;;;5080364;28;20027;-49
2022/03/02 12:59:05;;;;;;;10.02;5.35;;;;;;;;;;5088076;28;20044;-48
2022/03/02 13:01:31;;;;;;;12.27;5.85;;;;;;;;;;5080352;28;20632;-48
2022/03/02 13:03:59;;;;;;;10.98;4.95;;;;;;;;;;5075022;28;20097;-49
2022/03/02 13:06:29;;;;;;;9.20;5.32;;;;;;;;;;5080629;28;20029;-48
2022/03/02 13:09:02;;;;;;;9.57;5.07;;;;;;;;;;5089348;28;20023;-48
2022/03/02 13:11:31;;;;;;;8.73;4.95;;;;;;;;;;5077107;28;20033;-48
2022/03/02 13:13:57;;;;;;;9.55;5.20;;;;;;;;;;5080276;28;20524;-48
2022/03/02 13:16:24;;;;;;;11.75;5.75;;;;;;;;;;5086030;28;20366;-48
2022/03/02 13:18:52;;;;;;;10.35;6.25;;;;;;;;;;5084250;28;20095;-50
2022/03/02 13:21:22;;;;;;;10.05;5.47;;;;;;;;;;5081141;28;20024;-48
2022/03/02 13:24:08;;;;;;;10.75;5.70;;;;;;;;;;5089432;28;20029;-48
2022/03/02 13:26:36;;;;;;;9.20;4.65;;;;;;;;;;5086741;28;20034;-49
2022/03/02 13:29:06;;;;;;;9.40;5.22;;;;;;;;;;5085962;28;20044;-48
2022/03/02 13:31:50;;;;;;;9.02;5.30;;;;;;;;;;5083304;28;20116;-51
2022/03/02 13:34:17;;;;;;;10.52;5.93;;;;;;;;;;5087366;28;20020;-51
2022/03/02 13:36:47;;;;;;;8.90;5.28;;;;;;;;;;5084715;28;20024;-48
2022/03/02 13:39:19;;;;;;;10.27;5.55;;;;;;;;;;5095129;28;20080;-48
2022/03/02 13:41:56;;;;;;;9.90;5.85;;;;;;;;;;5085908;28;20399;-47
2022/03/02 13:44:23;;;;;;;11.05;5.97;;;;;;;;;;5086782;28;20085;-48
2022/03/02 13:47:16;;;;;;;12.90;6.00;;;;;;;;;;5092018;28;20082;-50
2022/03/02 13:49:54;;;;;;;12.70;7.13;;;;;;;;;;5081916;28;20028;-49
2022/03/02 13:52:21;;;;;;;11.10;5.70;;;;;;;;;;5083095;28;20488;-52
2022/03/02 13:54:48;;;;;;;12.98;6.00;;;;;;;;;;5090307;28;20020;-49
2022/03/02 13:57:18;;;;;;;8.23;5.07;;;;;;;;;;5084640;28;20077;-48
2022/03/02 13:59:44;;;;;;;12.20;5.35;;;;;;;;;;5082911;28;20083;-49
2022/03/02 14:02:10;;;;;;;10.65;5.32;;;;;;;;;;5086983;28;20097;-49
2022/03/02 14:04:42;;;;;;;9.85;6.22;;;;;;;;;;5094554;28;20022;-48
2022/03/02 14:07:08;;;;;;;14.48;6.55;;;;;;;;;;5089390;28;20031;-50
2022/03/02 14:09:35;;;;;;;13.95;6.68;;;;;;;;;;5087739;28;20034;-53
2022/03/02 14:12:03;;;;;;;9.07;4.93;;;;;;;;;;5087540;28;20055;-48
2022/03/02 14:14:31;;;;;;;14.05;5.45;;;;;;;;;;5083918;28;20035;-50
2022/03/02 14:17:07;;;;;;;10.20;4.82;;;;;;;;;;5092149;28;20067;-48
2022/03/02 14:19:41;;;;;;;9.50;5.07;;;;;;;;;;5087057;28;20050;-49
2022/03/02 14:22:11;;;;;;;13.30;5.55;;;;;;;;;;5092352;28;20034;-49
2022/03/02 14:24:37;;;;;;;11.75;5.35;;;;;;;;;;5089871;28;20023;-48
2022/03/02 14:27:03;;;;;;;10.07;5.30;;;;;;;;;;5085640;28;20081;-48
2022/03/02 14:29:30;;;;;;;8.80;4.85;;;;;;;;;;5079651;28;20017;-48